createdAt,value
2023-03-19T00:00:33.914Z,82.21
2023-03-19T00:03:00.675Z,82.20
2023-03-19T00:05:27.252Z,82.19
2023-03-19T00:07:53.644Z,82.18
2023-03-19T00:10:20.557Z,82.66
2023-03-19T00:12:47.392Z,82.85
2023-03-19T00:15:15.324Z,82.60
2023-03-19T00:17:43.004Z,82.81
2023-03-19T00:20:11.677Z,83.30
2023-03-19T00:22:39.800Z,83.95
2023-03-19T00:25:08.152Z,83.99
2023-03-19T00:27:34.852Z,83.19
2023-03-19T00:30:02.537Z,84.10
2023-03-19T00:32:29.287Z,83.57
2023-03-19T00:34:55.716Z,83.80
2023-03-19T00:37:22.541Z,83.64
2023-03-19T00:39:49.158Z,83.58
2023-03-19T00:42:15.638Z,83.68
2023-03-19T00:44:42.114Z,84.25
2023-03-19T00:47:08.645Z,83.43
2023-03-19T00:49:35.269Z,83.69
2023-03-19T00:52:01.763Z,84.06
2023-03-19T00:54:28.176Z,84.27
2023-03-19T00:56:54.590Z,84.40
2023-03-19T00:59:21.032Z,84.69
2023-03-19T01:01:47.569Z,85.08
2023-03-19T01:04:15.108Z,85.58
2023-03-19T01:06:41.837Z,85.99
2023-03-19T01:09:08.467Z,86.07
2023-03-19T01:11:35.262Z,86.16
2023-03-19T01:14:02.484Z,86.39
2023-03-19T01:16:29.123Z,86.58
2023-03-19T01:18:55.625Z,86.75
2023-03-19T01:21:22.077Z,86.94
2023-03-19T01:23:48.686Z,87.28
2023-03-19T01:26:15.313Z,87.70
2023-03-19T01:28:41.900Z,87.76
2023-03-19T01:31:09.522Z,87.85
2023-03-19T01:33:37.584Z,88.31
2023-03-19T01:36:05.479Z,88.22
2023-03-19T01:38:32.542Z,88.69
2023-03-19T01:40:59.246Z,88.90
2023-03-19T01:43:28.782Z,89.13
2023-03-19T01:46:27.090Z,89.92
2023-03-19T01:49:00.101Z,88.73
2023-03-19T01:51:31.962Z,88.80
2023-03-19T01:54:09.377Z,89.54
2023-03-19T01:56:38.609Z,89.39
2023-03-19T01:59:17.872Z,89.34
2023-03-19T02:01:58.249Z,89.20
2023-03-19T02:04:27.296Z,88.83
2023-03-19T02:06:58.032Z,88.81
2023-03-19T02:09:26.097Z,88.66
2023-03-19T02:11:54.189Z,88.34
2023-03-19T02:14:21.507Z,87.82
2023-03-19T02:16:48.219Z,88.01
2023-03-19T02:19:22.102Z,88.33
2023-03-19T02:21:49.619Z,87.80
2023-03-19T02:24:22.975Z,88.17
2023-03-19T02:26:50.562Z,87.08
2023-03-19T02:29:17.415Z,87.69
2023-03-19T02:31:44.249Z,87.68
2023-03-19T02:34:38.715Z,89.09
2023-03-19T02:37:19.775Z,88.26
2023-03-19T02:40:04.713Z,88.76
2023-03-19T02:42:31.493Z,87.67
2023-03-19T02:44:58.411Z,87.51
2023-03-19T02:47:26.380Z,88.32
2023-03-19T02:49:53.224Z,88.61
2023-03-19T02:52:20.190Z,88.64
2023-03-19T02:54:46.688Z,89.52
2023-03-19T02:57:13.497Z,88.55
2023-03-19T02:59:40.120Z,88.74
2023-03-19T03:02:07.095Z,89.24
2023-03-19T03:04:34.823Z,89.61
2023-03-19T03:07:01.715Z,89.47
2023-03-19T03:09:28.169Z,89.16
2023-03-19T03:11:54.672Z,89.40
2023-03-19T03:14:21.109Z,89.21
2023-03-19T03:16:47.541Z,89.25
2023-03-19T03:19:14.218Z,89.67
2023-03-19T03:21:41.200Z,90.10
2023-03-19T03:24:07.993Z,90.46
2023-03-19T03:26:35.999Z,90.16
2023-03-19T03:29:02.491Z,90.84
2023-03-19T03:31:30.261Z,90.83
2023-03-19T03:33:56.732Z,90.80
2023-03-19T03:36:23.730Z,90.72
2023-03-19T03:38:50.333Z,91.17
2023-03-19T03:41:16.878Z,91.33
2023-03-19T03:43:43.307Z,91.82
2023-03-19T03:46:09.845Z,92.39
2023-03-19T03:48:36.294Z,92.24
2023-03-19T03:51:03.345Z,92.58
2023-03-19T03:53:32.459Z,92.83
2023-03-19T03:55:59.295Z,92.63
2023-03-19T03:58:25.987Z,92.70
2023-03-19T04:00:52.705Z,93.38
2023-03-19T04:03:19.521Z,93.41
2023-03-19T04:05:46.256Z,93.55
2023-03-19T04:08:12.756Z,93.07
2023-03-19T04:10:40.652Z,93.10
2023-03-19T04:13:07.102Z,92.81
2023-03-19T04:15:33.999Z,93.04
2023-03-19T04:18:01.100Z,93.06
2023-03-19T04:20:27.573Z,92.14
2023-03-19T04:22:53.974Z,92.92
2023-03-19T04:25:20.645Z,93.49
2023-03-19T04:27:47.131Z,93.07
2023-03-19T04:30:14.382Z,93.54
2023-03-19T04:32:41.061Z,94.10
2023-03-19T04:35:08.155Z,93.95
2023-03-19T04:37:34.988Z,93.72
2023-03-19T04:40:01.473Z,93.79
2023-03-19T04:42:28.043Z,94.16
2023-03-19T04:44:54.506Z,94.24
2023-03-19T04:47:21.034Z,94.08
2023-03-19T04:49:48.799Z,94.54
2023-03-19T04:52:18.913Z,94.73
2023-03-19T04:54:45.663Z,94.19
2023-03-19T04:57:12.431Z,94.59
2023-03-19T04:59:38.886Z,95.11
2023-03-19T05:02:06.096Z,94.80
2023-03-19T05:04:32.624Z,94.93
2023-03-19T05:06:59.264Z,95.45
2023-03-19T05:09:26.056Z,95.55
2023-03-19T05:11:52.541Z,95.52
2023-03-19T05:14:19.057Z,95.84
2023-03-19T05:16:45.505Z,95.56
2023-03-19T05:19:12.207Z,95.47
2023-03-19T05:21:39.031Z,95.27
2023-03-19T05:24:05.509Z,95.39
2023-03-19T05:26:32.309Z,95.20
2023-03-19T05:28:58.892Z,94.88
2023-03-19T05:31:25.705Z,94.86
2023-03-19T05:33:52.350Z,94.39
2023-03-19T05:36:19.094Z,94.46
2023-03-19T05:38:45.852Z,94.17
2023-03-19T05:41:12.344Z,94.18
2023-03-19T05:43:38.780Z,94.18
2023-03-19T05:46:05.338Z,93.97
2023-03-19T05:48:31.913Z,94.56
2023-03-19T05:50:59.319Z,94.68
2023-03-19T05:53:25.903Z,94.96
2023-03-19T05:55:52.335Z,94.95
2023-03-19T05:58:18.867Z,95.05
2023-03-19T06:00:45.864Z,95.12
2023-03-19T06:03:12.365Z,94.80
2023-03-19T06:05:39.269Z,94.36
2023-03-19T06:08:06.204Z,94.45
2023-03-19T06:10:35.353Z,94.48
2023-03-19T06:13:02.095Z,94.45
2023-03-19T06:15:28.540Z,94.08
2023-03-19T06:17:54.987Z,93.84
2023-03-19T06:20:21.885Z,93.89
2023-03-19T06:22:48.403Z,93.70
2023-03-19T06:25:15.144Z,94.08
2023-03-19T06:27:41.624Z,94.03
2023-03-19T06:30:09.167Z,94.07
2023-03-19T06:32:36.159Z,93.88
2023-03-19T06:35:03.115Z,93.96
2023-03-19T06:37:29.529Z,93.68
2023-03-19T06:39:56.189Z,93.87
2023-03-19T06:42:23.032Z,93.85
2023-03-19T06:44:52.317Z,93.67
2023-03-19T06:47:19.969Z,94.24
2023-03-19T06:49:46.440Z,93.29
2023-03-19T06:52:12.931Z,93.71
2023-03-19T06:54:39.397Z,94.03
2023-03-19T06:57:06.007Z,94.27
2023-03-19T06:59:32.793Z,94.50
2023-03-19T07:01:59.353Z,94.84
2023-03-19T07:04:26.035Z,95.07
2023-03-19T07:06:52.575Z,95.04
2023-03-19T07:09:19.021Z,95.29
2023-03-19T07:11:45.730Z,94.87
2023-03-19T07:14:12.220Z,94.89
2023-03-19T07:16:39.447Z,94.87
2023-03-19T07:19:05.986Z,94.62
2023-03-19T07:21:32.577Z,94.37
2023-03-19T07:23:59.290Z,93.92
2023-03-19T07:26:25.803Z,93.71
2023-03-19T07:28:52.446Z,92.99
2023-03-19T07:31:19.014Z,92.58
2023-03-19T07:33:45.426Z,92.18
2023-03-19T07:36:12.152Z,91.00
2023-03-19T07:38:38.647Z,90.04
2023-03-19T07:41:05.394Z,88.42
2023-03-19T07:43:31.883Z,87.52
2023-03-19T07:45:59.449Z,84.95
2023-03-19T07:48:26.206Z,83.72
2023-03-19T07:50:53.259Z,81.99
2023-03-19T07:53:20.548Z,80.99
2023-03-19T07:55:47.748Z,80.46
2023-03-19T07:58:14.776Z,80.22
2023-03-19T08:00:41.452Z,79.28
2023-03-19T08:03:08.364Z,79.44
2023-03-19T08:05:34.941Z,79.14
2023-03-19T08:08:01.777Z,77.60
2023-03-19T08:10:28.449Z,76.63
2023-03-19T08:12:54.934Z,75.80
2023-03-19T08:15:21.475Z,75.48
2023-03-19T08:17:49.076Z,75.10
2023-03-19T08:20:16.666Z,75.76
2023-03-19T08:22:43.253Z,75.29
2023-03-19T08:25:10.959Z,73.70
2023-03-19T08:27:37.843Z,73.55
2023-03-19T08:30:07.507Z,73.34
2023-03-19T08:32:34.362Z,72.29
2023-03-19T08:35:01.492Z,71.52
2023-03-19T08:37:28.182Z,71.52
2023-03-19T08:39:54.806Z,71.16
2023-03-19T08:42:22.644Z,69.32
2023-03-19T08:44:49.947Z,69.72
2023-03-19T08:47:16.534Z,68.66
2023-03-19T08:49:42.949Z,68.27
2023-03-19T08:52:10.485Z,68.16
2023-03-19T08:54:43.420Z,68.45
2023-03-19T08:57:10.043Z,67.43
2023-03-19T08:59:36.619Z,66.83
2023-03-19T09:02:03.640Z,65.93
2023-03-19T09:04:37.503Z,65.59
2023-03-19T09:07:03.983Z,64.98
2023-03-19T09:09:30.605Z,65.33
2023-03-19T09:11:57.030Z,66.01
2023-03-19T09:14:23.817Z,64.72
2023-03-19T09:16:50.694Z,63.10
2023-03-19T09:19:17.486Z,62.14
2023-03-19T09:21:44.718Z,61.72
2023-03-19T09:24:11.509Z,60.90
2023-03-19T09:26:38.024Z,61.04
2023-03-19T09:29:04.953Z,61.04
2023-03-19T09:31:31.524Z,59.25
2023-03-19T09:33:58.108Z,59.25
2023-03-19T09:36:25.503Z,58.71
2023-03-19T09:38:52.523Z,59.18
2023-03-19T09:41:49.560Z,60.35
2023-03-19T09:44:30.842Z,59.62
2023-03-19T09:47:32.468Z,59.59
2023-03-19T09:50:21.091Z,60.39
2023-03-19T09:52:50.895Z,60.41
2023-03-19T09:55:23.395Z,61.02
2023-03-19T09:57:51.426Z,60.43
2023-03-19T10:00:24.639Z,61.65
2023-03-19T10:03:18.483Z,60.77
2023-03-19T10:05:57.107Z,60.69
2023-03-19T10:08:46.729Z,59.85
2023-03-19T10:11:31.118Z,59.76
2023-03-19T10:14:32.479Z,59.54
2023-03-19T10:17:01.139Z,58.73
2023-03-19T10:19:47.415Z,60.23
2023-03-19T10:22:24.628Z,59.14
2023-03-19T10:24:56.204Z,58.79
2023-03-19T10:27:26.155Z,57.33
2023-03-19T10:29:52.693Z,57.07
2023-03-19T10:32:59.711Z,57.40
2023-03-19T10:35:41.252Z,55.50
2023-03-19T10:38:25.516Z,55.36
2023-03-19T10:41:31.752Z,54.56
2023-03-19T10:44:12.122Z,52.60
2023-03-19T10:46:39.851Z,51.16
2023-03-19T10:49:13.066Z,51.73
2023-03-19T10:51:39.989Z,51.00
2023-03-19T10:54:23.682Z,52.14
2023-03-19T10:56:51.443Z,51.29
2023-03-19T10:59:23.002Z,51.44
2023-03-19T11:01:49.622Z,52.02
2023-03-19T11:04:22.034Z,52.14
2023-03-19T11:09:51.537Z,52.61
2023-03-19T11:12:35.251Z,51.97
2023-03-19T11:15:07.683Z,50.92
2023-03-19T11:17:39.613Z,51.03
2023-03-19T11:20:22.581Z,51.67
2023-03-19T11:22:52.483Z,50.63
2023-03-19T11:25:23.730Z,51.33
2023-03-19T11:28:06.960Z,51.39
2023-03-19T11:30:43.920Z,49.28
2023-03-19T11:33:33.082Z,49.01
2023-03-19T11:36:13.757Z,48.58
2023-03-19T11:38:54.656Z,48.45
2023-03-19T11:41:49.201Z,47.51
2023-03-19T11:44:47.967Z,47.25
2023-03-19T11:47:40.919Z,48.62
2023-03-19T11:50:19.574Z,49.38
2023-03-19T11:53:07.911Z,49.33
2023-03-19T11:55:48.039Z,49.05
2023-03-19T11:58:52.073Z,49.29
2023-03-19T12:01:21.421Z,49.54
2023-03-19T12:04:00.236Z,49.35
2023-03-19T12:06:54.887Z,50.05
2023-03-19T12:09:38.948Z,49.94
2023-03-19T12:12:17.783Z,49.99
2023-03-19T12:15:22.566Z,50.21
2023-03-19T12:18:21.646Z,50.99
2023-03-19T12:21:50.469Z,50.87
2023-03-19T12:24:34.055Z,51.23
2023-03-19T12:27:35.055Z,51.78
2023-03-19T12:30:30.643Z,50.63
2023-03-19T12:33:09.155Z,51.11
2023-03-19T12:35:38.979Z,50.86
2023-03-19T12:38:21.448Z,51.22
2023-03-19T12:40:53.589Z,50.98
2023-03-19T12:43:43.070Z,51.72
2023-03-19T12:46:16.067Z,51.65
2023-03-19T12:48:51.216Z,51.40
2023-03-19T12:51:21.700Z,51.64
2023-03-19T12:54:01.468Z,51.26
2023-03-19T12:56:32.901Z,51.21
2023-03-19T12:59:13.655Z,51.79
2023-03-19T13:01:47.685Z,51.20
2023-03-19T13:04:26.367Z,51.44
2023-03-19T13:07:03.167Z,51.23
2023-03-19T13:09:43.902Z,51.11
2023-03-19T13:12:15.991Z,50.73
2023-03-19T13:15:14.504Z,51.45
2023-03-19T13:17:49.040Z,50.42
2023-03-19T13:20:40.544Z,50.53
2023-03-19T13:23:09.878Z,50.26
2023-03-19T13:25:42.868Z,50.35
2023-03-19T13:28:22.481Z,50.37
2023-03-19T13:31:00.801Z,50.91
2023-03-19T13:33:30.377Z,51.01
2023-03-19T13:35:57.738Z,50.90
2023-03-19T13:38:34.890Z,51.46
2023-03-19T13:41:02.172Z,51.90
2023-03-19T13:43:29.190Z,51.47
2023-03-19T13:46:15.820Z,51.59
2023-03-19T13:48:45.766Z,52.03
2023-03-19T13:51:12.296Z,52.03
2023-03-19T13:53:53.576Z,52.06
2023-03-19T13:56:29.542Z,51.66
2023-03-19T13:59:15.655Z,51.90
2023-03-19T14:01:44.800Z,51.50
2023-03-19T14:04:22.812Z,51.15
2023-03-19T14:06:53.326Z,50.74
2023-03-19T14:09:40.058Z,51.18
2023-03-19T14:12:23.201Z,50.38
2023-03-19T14:15:00.709Z,49.70
2023-03-19T14:17:34.566Z,49.72
2023-03-19T14:20:25.867Z,49.53
2023-03-19T14:23:39.468Z,50.06
2023-03-19T14:26:24.251Z,50.25
2023-03-19T14:28:58.788Z,49.85
2023-03-19T14:32:05.765Z,50.15
2023-03-19T14:34:42.945Z,49.60
2023-03-19T14:37:24.987Z,50.23
2023-03-19T14:40:00.006Z,50.37
2023-03-19T14:42:32.352Z,50.96
2023-03-19T14:45:31.138Z,51.89
2023-03-19T14:48:16.610Z,52.31
2023-03-19T14:51:23.118Z,52.65
2023-03-19T14:54:21.578Z,52.90
2023-03-19T14:56:48.753Z,52.82
2023-03-19T14:59:15.955Z,53.05
2023-03-19T15:01:49.987Z,53.67
2023-03-19T15:04:17.979Z,53.72
2023-03-19T15:06:57.879Z,53.92
2023-03-19T15:09:33.543Z,54.28
2023-03-19T15:12:18.020Z,54.59
2023-03-19T15:15:15.438Z,55.48
2023-03-19T15:17:45.308Z,55.96
2023-03-19T15:20:18.746Z,56.64
2023-03-19T15:22:54.636Z,57.04
2023-03-19T15:25:21.697Z,57.31
2023-03-19T15:28:13.651Z,57.99
2023-03-19T15:30:53.837Z,58.38
2023-03-19T15:33:40.885Z,59.11
2023-03-19T15:36:13.433Z,59.33
2023-03-19T15:39:02.922Z,59.82
2023-03-19T15:41:32.425Z,60.33
2023-03-19T15:44:06.384Z,60.72
2023-03-19T15:46:37.545Z,60.68
2023-03-19T15:49:30.349Z,60.84
2023-03-19T15:52:01.529Z,61.36
2023-03-19T15:54:28.387Z,61.45
2023-03-19T15:56:56.377Z,61.47
2023-03-19T15:59:27.397Z,61.74
2023-03-19T16:01:59.442Z,62.13
2023-03-19T16:04:29.607Z,62.42
2023-03-19T16:06:59.095Z,62.62
2023-03-19T16:09:33.166Z,63.10
2023-03-19T16:12:01.277Z,62.50
2023-03-19T16:14:35.756Z,62.40
2023-03-19T16:17:13.576Z,61.68
2023-03-19T16:19:52.533Z,60.99
2023-03-19T16:22:33.106Z,61.01
2023-03-19T16:25:01.914Z,60.83
2023-03-19T16:27:36.248Z,61.12
2023-03-19T16:30:04.115Z,60.46
2023-03-19T16:32:32.107Z,60.22
2023-03-19T16:35:12.420Z,60.67
2023-03-19T16:37:46.686Z,60.10
2023-03-19T16:40:13.251Z,60.02
2023-03-19T16:42:51.233Z,60.11
2023-03-19T16:45:27.449Z,60.69
2023-03-19T16:47:56.966Z,60.88
2023-03-19T16:50:44.201Z,61.41
2023-03-19T16:53:22.243Z,61.97
2023-03-19T16:55:49.318Z,62.25
2023-03-19T16:58:19.038Z,63.12
2023-03-19T17:00:48.865Z,63.66
2023-03-19T17:03:17.916Z,64.08
2023-03-19T17:05:46.399Z,64.56
2023-03-19T17:08:13.512Z,65.00
2023-03-19T17:10:49.337Z,65.43
2023-03-19T17:13:28.264Z,65.95
2023-03-19T17:15:56.947Z,65.83
2023-03-19T17:18:25.262Z,66.28
2023-03-19T17:21:00.758Z,66.92
2023-03-19T17:23:27.903Z,66.93
2023-03-19T17:25:54.886Z,67.30
2023-03-19T17:28:21.971Z,67.87
2023-03-19T17:30:49.152Z,68.40
2023-03-19T17:33:23.724Z,69.57
2023-03-19T17:35:51.468Z,69.64
2023-03-19T17:38:19.262Z,70.11
2023-03-19T17:40:46.475Z,70.53
2023-03-19T17:43:13.637Z,70.88
2023-03-19T17:45:49.214Z,71.64
2023-03-19T17:48:25.779Z,72.36
2023-03-19T17:50:58.208Z,72.31
2023-03-19T17:53:24.925Z,72.34
2023-03-19T17:55:51.922Z,72.80
2023-03-19T17:58:21.233Z,73.61
2023-03-19T18:00:49.958Z,73.81
2023-03-19T18:03:18.708Z,74.44
2023-03-19T18:05:45.640Z,74.37
2023-03-19T18:08:17.527Z,74.70
2023-03-19T18:10:44.493Z,74.66
2023-03-19T18:13:11.234Z,74.66
2023-03-19T18:15:40.193Z,75.02
2023-03-19T18:18:11.172Z,75.11
2023-03-19T18:20:39.579Z,75.25
2023-03-19T18:23:06.792Z,76.16
2023-03-19T18:25:35.503Z,76.87
2023-03-19T18:28:03.603Z,77.19
2023-03-19T18:30:33.427Z,77.39
2023-03-19T18:33:02.852Z,77.90
2023-03-19T18:35:36.463Z,78.43
2023-03-19T18:38:03.344Z,78.68
2023-03-19T18:40:33.026Z,79.46
2023-03-19T18:42:59.620Z,79.10
2023-03-19T18:45:30.933Z,80.10
2023-03-19T18:47:57.914Z,80.41
2023-03-19T18:50:29.338Z,81.06
2023-03-19T18:52:56.417Z,81.47
2023-03-19T18:55:30.346Z,82.34
2023-03-19T18:58:00.527Z,82.36
2023-03-19T19:00:33.464Z,82.79
2023-03-19T19:03:01.929Z,82.90
2023-03-19T19:05:30.781Z,83.06
2023-03-19T19:07:58.898Z,84.01
2023-03-19T19:10:30.953Z,85.61
2023-03-19T19:12:57.705Z,83.85
2023-03-19T19:15:25.760Z,85.50
2023-03-19T19:17:52.878Z,85.46
2023-03-19T19:20:25.582Z,85.42
2023-03-19T19:22:53.056Z,85.32
2023-03-19T19:25:25.558Z,85.46
2023-03-19T19:28:01.050Z,85.68
2023-03-19T19:30:28.797Z,84.55
2023-03-19T19:32:55.307Z,84.45
2023-03-19T19:35:24.515Z,84.51
2023-03-19T19:37:51.674Z,84.58
2023-03-19T19:40:21.392Z,85.11
2023-03-19T19:42:52.471Z,84.86
2023-03-19T19:45:23.846Z,85.35
2023-03-19T19:47:50.359Z,85.26
2023-03-19T19:50:18.549Z,85.27
2023-03-19T19:52:45.435Z,85.09
2023-03-19T19:55:11.938Z,85.27
2023-03-19T19:57:42.837Z,85.28
2023-03-19T20:00:16.857Z,86.12
2023-03-19T20:02:43.288Z,86.05
2023-03-19T20:05:23.160Z,86.83
2023-03-19T20:07:55.436Z,86.89
2023-03-19T20:10:24.429Z,85.84
2023-03-19T20:12:54.313Z,86.53
2023-03-19T20:15:27.341Z,86.21
2023-03-19T20:17:54.815Z,86.00
2023-03-19T20:20:32.357Z,86.24
2023-03-19T20:23:01.516Z,85.47
2023-03-19T20:25:30.602Z,85.90
2023-03-19T20:27:59.754Z,86.27
2023-03-19T20:30:38.787Z,86.67
2023-03-19T20:33:06.124Z,85.59
2023-03-19T20:35:36.101Z,85.63
2023-03-19T20:38:05.279Z,85.96
2023-03-19T20:40:34.255Z,85.88
2023-03-19T20:43:01.724Z,86.00
2023-03-19T20:45:36.909Z,86.34
2023-03-19T20:48:04.207Z,85.28
2023-03-19T20:50:33.028Z,85.64
2023-03-19T20:53:03.601Z,85.68
2023-03-19T20:55:33.849Z,85.97
2023-03-19T20:58:03.833Z,86.19
2023-03-19T21:00:33.121Z,86.37
2023-03-19T21:03:01.712Z,86.34
2023-03-19T21:05:34.419Z,87.11
2023-03-19T21:08:01.312Z,86.82
2023-03-19T21:10:43.007Z,88.33
2023-03-19T21:13:13.501Z,87.81
2023-03-19T21:15:40.679Z,87.60
2023-03-19T21:18:08.388Z,87.70
2023-03-19T21:20:35.829Z,87.84
2023-03-19T21:23:08.737Z,88.64
2023-03-19T21:25:36.749Z,87.96
2023-03-19T21:28:07.246Z,88.36
2023-03-19T21:30:41.502Z,88.62
2023-03-19T21:33:28.906Z,89.38
2023-03-19T21:35:56.463Z,88.38
2023-03-19T21:38:23.827Z,88.48
2023-03-19T21:40:53.974Z,88.48
2023-03-19T21:43:23.453Z,88.74
2023-03-19T21:45:51.482Z,88.38
2023-03-19T21:48:24.019Z,89.14
2023-03-19T21:50:51.873Z,88.56
2023-03-19T21:53:19.431Z,88.43
2023-03-19T21:55:46.417Z,88.39
2023-03-19T21:58:14.836Z,88.17
2023-03-19T22:00:41.718Z,88.17
2023-03-19T22:03:16.192Z,88.82
2023-03-19T22:05:42.721Z,87.89
2023-03-19T22:08:09.315Z,87.94
2023-03-19T22:10:36.484Z,87.93
2023-03-19T22:13:03.804Z,87.77
2023-03-19T22:15:37.665Z,87.85
2023-03-19T22:18:07.256Z,88.25
2023-03-19T22:20:33.698Z,87.53
2023-03-19T22:23:00.443Z,87.63
2023-03-19T22:25:35.332Z,88.14
2023-03-19T22:28:07.635Z,88.18
2023-03-19T22:30:37.218Z,88.02
2023-03-19T22:33:21.405Z,88.71
2023-03-19T22:35:51.798Z,87.70
2023-03-19T22:38:19.108Z,87.69
2023-03-19T22:40:48.333Z,87.16
2023-03-19T22:43:30.626Z,88.50
2023-03-19T22:46:07.717Z,88.49
2023-03-19T22:48:34.460Z,87.42
2023-03-19T22:51:01.133Z,87.68
2023-03-19T22:53:36.419Z,88.63
2023-03-19T22:56:04.092Z,87.76
2023-03-19T22:58:31.182Z,87.76
2023-03-19T23:00:58.173Z,87.72
2023-03-19T23:03:34.816Z,88.35
2023-03-19T23:06:05.392Z,88.03
2023-03-19T23:08:31.898Z,88.03
2023-03-19T23:10:58.527Z,88.14
2023-03-19T23:13:25.811Z,88.18
2023-03-19T23:15:58.779Z,88.61
2023-03-19T23:18:36.731Z,89.36
2023-03-19T23:21:03.991Z,88.42
2023-03-19T23:23:33.710Z,89.06
2023-03-19T23:26:00.543Z,88.54
2023-03-19T23:28:31.988Z,89.38
2023-03-19T23:31:02.870Z,88.66
2023-03-19T23:33:30.324Z,88.60
2023-03-19T23:35:59.452Z,88.86
2023-03-19T23:38:26.474Z,88.61
2023-03-19T23:40:53.913Z,88.70
2023-03-19T23:43:27.239Z,89.70
2023-03-19T23:45:55.202Z,88.91
2023-03-19T23:48:26.621Z,89.39
2023-03-19T23:50:53.571Z,89.13
2023-03-19T23:53:25.153Z,89.11
2023-03-19T23:56:01.040Z,89.58
2023-03-19T23:58:42.857Z,89.77
